Time;durP1;ratioP1;P1;durP2;ratioP2;P2;SDS_P1;SDS_P2;PMS_P1;PMS_P2;Temp;Humidity;BMP_temperature;BMP_pressure;BME280_temperature;BME280_humidity;BME280_pressure;Samples;Min_cycle;Max_cycle;Signal;HPM_P1;HPM_P2
2022/04/27 00:01:01;;;;;;;49.35;28.77;;;;;;;8.08;100.00;99055.52;2254674;78;21089;-87
2022/04/27 00:04:03;;;;;;;38.23;22.60;;;;;;;8.08;100.00;99057.63;2254187;79;20982;-86
2022/04/27 00:07:06;;;;;;;46.37;25.27;;;;;;;8.06;100.00;99056.98;2255306;79;21034;-91
2022/04/27 00:10:08;;;;;;;49.93;28.45;;;;;;;8.07;100.00;99057.80;2253727;79;20959;-87
2022/04/27 00:13:09;;;;;;;48.30;27.75;;;;;;;7.95;100.00;99056.76;2255076;79;21042;-89
2022/04/27 00:16:11;;;;;;;52.05;28.40;;;;;;;7.91;100.00;99055.41;2254616;79;20982;-91
2022/04/27 00:19:13;;;;;;;48.60;28.73;;;;;;;7.89;100.00;99056.06;2239703;78;21638;-90
2022/04/27 00:22:15;;;;;;;44.42;27.00;;;;;;;7.85;100.00;99056.51;2226803;80;20965;-86
2022/04/27 00:25:16;;;;;;;48.85;28.95;;;;;;;7.79;100.00;99051.44;2201864;80;21109;-92
2022/04/27 00:28:18;;;;;;;52.13;27.73;;;;;;;7.68;100.00;99057.73;2224677;80;21108;-92
2022/04/27 00:31:20;;;;;;;52.85;29.90;;;;;;;7.60;100.00;99055.55;2224159;80;21041;-92
2022/04/27 00:34:22;;;;;;;64.55;34.30;;;;;;;7.58;100.00;99058.77;2224291;80;20929;-90
2022/04/27 00:37:24;;;;;;;65.30;35.85;;;;;;;7.57;100.00;99062.34;2224370;80;21501;-91
2022/04/27 00:40:26;;;;;;;61.00;33.10;;;;;;;7.58;100.00;99067.89;2224266;80;21551;-89
2022/04/27 00:43:27;;;;;;;59.18;33.40;;;;;;;7.57;100.00;99063.16;2224107;80;21052;-91
2022/04/27 00:46:29;;;;;;;56.75;32.53;;;;;;;7.51;100.00;99058.58;2224045;80;20985;-91
2022/04/27 00:49:31;;;;;;;57.13;32.88;;;;;;;7.43;100.00;99061.12;2224159;80;21060;-90
2022/04/27 00:52:32;;;;;;;57.50;32.80;;;;;;;7.37;100.00;99063.83;2224167;80;21479;-89
2022/04/27 00:55:34;;;;;;;62.08;31.62;;;;;;;7.33;100.00;99061.69;2224154;80;21017;-90
2022/04/27 00:58:36;;;;;;;59.98;34.50;;;;;;;7.30;100.00;99067.99;2225433;80;20988;-91
2022/04/27 01:01:38;;;;;;;59.58;32.63;;;;;;;7.26;100.00;99070.58;2226187;80;21079;-88
2022/04/27 01:04:39;;;;;;;65.37;34.30;;;;;;;7.26;100.00;99072.36;2226518;80;21008;-86
2022/04/27 01:07:41;;;;;;;57.53;32.20;;;;;;;7.22;100.00;99071.01;2226605;80;21052;-87
2022/04/27 01:10:44;;;;;;;58.45;30.85;;;;;;;7.13;100.00;99072.27;2226552;80;20965;-90
2022/04/27 01:13:45;;;;;;;60.50;33.10;;;;;;;7.02;100.00;99074.25;2226815;80;21008;-87
2022/04/27 01:16:47;;;;;;;63.95;32.17;;;;;;;6.95;100.00;99069.29;2226852;80;21004;-87
2022/04/27 01:19:49;;;;;;;66.15;32.48;;;;;;;6.91;100.00;99077.08;2221122;80;21081;-87
2022/04/27 01:22:51;;;;;;;58.05;29.85;;;;;;;6.89;100.00;99077.22;2207893;80;20974;-87
2022/04/27 01:25:54;;;;;;;60.98;31.73;;;;;;;6.84;100.00;99081.55;2207059;81;20942;-87
2022/04/27 01:28:55;;;;;;;49.70;28.42;;;;;;;6.83;100.00;99077.80;2206446;80;20954;-88
2022/04/27 01:32:00;;;;;;;56.55;29.45;;;;;;;6.88;100.00;99080.80;2204476;79;20993;-87
2022/04/27 01:35:01;;;;;;;54.30;28.62;;;;;;;6.82;100.00;99080.89;2204360;80;21024;-90
2022/04/27 01:38:03;;;;;;;56.55;30.25;;;;;;;6.58;100.00;99088.41;2204609;80;21257;-90
2022/04/27 01:41:05;;;;;;;56.88;30.15;;;;;;;6.51;100.00;99084.77;2204273;79;21500;-90
2022/04/27 01:44:06;;;;;;;51.45;27.60;;;;;;;6.48;100.00;99091.55;2204303;81;20978;-91
2022/04/27 01:47:08;;;;;;;59.70;31.07;;;;;;;6.42;100.00;99090.36;2204203;80;21044;-91
2022/04/27 01:50:10;;;;;;;51.40;27.90;;;;;;;6.43;100.00;99092.48;2203971;81;21477;-89
2022/04/27 01:56:33;;;;;;;33.92;21.33;;;;;;;6.21;100.00;99092.34;2097405;84;21071;-86
2022/04/27 01:59:34;;;;;;;42.17;24.25;;;;;;;6.15;100.00;99093.75;2096574;85;21730;-89
2022/04/27 02:02:36;;;;;;;37.08;21.60;;;;;;;6.01;100.00;99095.48;2095529;85;20996;-86
2022/04/27 02:05:38;;;;;;;38.28;23.35;;;;;;;5.99;100.00;99094.81;2096088;85;21182;-91
2022/04/27 02:08:40;;;;;;;33.08;20.55;;;;;;;6.01;100.00;99090.28;2095573;85;21087;-90
2022/04/27 02:11:41;;;;;;;28.30;17.85;;;;;;;6.04;100.00;99094.41;2096132;85;21027;-91
2022/04/27 02:14:43;;;;;;;30.20;18.50;;;;;;;6.03;100.00;99087.06;2097618;85;21605;-87
2022/04/27 02:17:45;;;;;;;32.48;19.98;;;;;;;6.05;100.00;99088.24;2098240;85;21027;-87
2022/04/27 02:20:47;;;;;;;26.45;17.52;;;;;;;5.95;100.00;99087.79;2115511;83;21133;-86
2022/04/27 02:23:49;;;;;;;28.32;17.52;;;;;;;5.82;100.00;99085.11;2130808;84;21009;-86
2022/04/27 02:26:52;;;;;;;28.23;18.05;;;;;;;5.77;100.00;99088.14;2163813;80;20972;-86
2022/04/27 02:29:54;;;;;;;30.92;18.40;;;;;;;5.74;100.00;99092.78;2229960;80;20946;-86
2022/04/27 02:32:56;;;;;;;28.77;19.37;;;;;;;5.73;100.00;99097.16;2229928;80;20988;-86
2022/04/27 02:35:57;;;;;;;26.80;17.02;;;;;;;5.73;100.00;99089.84;2229982;80;20960;-86
2022/04/27 02:38:59;;;;;;;29.90;19.37;;;;;;;5.77;100.00;99091.22;2229952;80;20999;-87
2022/04/27 02:42:01;;;;;;;35.13;18.10;;;;;;;5.78;100.00;99091.56;2230046;80;20921;-86
2022/04/27 02:45:03;;;;;;;30.97;19.25;;;;;;;5.76;100.00;99094.30;2229960;79;20952;-86
2022/04/27 02:48:04;;;;;;;36.93;20.08;;;;;;;5.81;100.00;99094.69;2228900;80;21006;-89
2022/04/27 02:54:26;;;;;;;36.75;21.07;;;;;;;5.78;100.00;99094.16;2227204;80;20975;-90
2022/04/27 02:57:28;;;;;;;31.68;19.52;;;;;;;5.74;100.00;99101.87;2227205;80;21022;-89
2022/04/27 03:00:30;;;;;;;32.50;19.92;;;;;;;5.68;100.00;99096.29;2227576;80;20960;-91
2022/04/27 03:03:31;;;;;;;31.23;18.87;;;;;;;5.65;100.00;99095.73;2227064;79;21024;-88
2022/04/27 03:06:33;;;;;;;38.02;21.40;;;;;;;5.61;100.00;99099.09;2227557;80;21008;-85
2022/04/27 03:09:35;;;;;;;36.38;21.48;;;;;;;5.61;100.00;99092.60;2228962;80;20972;-87
2022/04/27 03:12:37;;;;;;;36.88;19.70;;;;;;;5.61;100.00;99099.58;2229111;80;21310;-85
2022/04/27 03:15:38;;;;;;;33.85;20.88;;;;;;;5.59;100.00;99100.20;2227108;80;20975;-88
2022/04/27 03:18:40;;;;;;;40.43;21.07;;;;;;;5.50;100.00;99101.03;2227105;79;20995;-86
2022/04/27 03:21:42;;;;;;;37.67;21.23;;;;;;;5.46;100.00;99100.47;2226368;79;21475;-87
2022/04/27 03:24:44;;;;;;;36.25;18.57;;;;;;;5.44;100.00;99110.17;2226459;80;21468;-86
2022/04/27 03:27:46;;;;;;;31.20;18.77;;;;;;;5.46;100.00;99104.84;2226341;80;21527;-86
2022/04/27 03:30:50;;;;;;;36.33;19.80;;;;;;;5.34;100.00;99108.88;2226448;80;21031;-87
2022/04/27 03:33:52;;;;;;;38.10;22.95;;;;;;;5.22;100.00;99111.28;2226363;80;20995;-87
2022/04/27 03:36:54;;;;;;;38.80;21.85;;;;;;;5.21;100.00;99118.73;2226434;80;21019;-86
2022/04/27 03:39:56;;;;;;;33.05;18.85;;;;;;;5.22;100.00;99113.88;2226281;80;20980;-86
2022/04/27 03:42:58;;;;;;;36.28;20.00;;;;;;;5.24;100.00;99123.64;2226195;80;20963;-86
2022/04/27 03:45:59;;;;;;;30.45;18.77;;;;;;;5.30;100.00;99123.11;2227209;80;20980;-86
2022/04/27 03:49:01;;;;;;;28.23;18.05;;;;;;;5.49;100.00;99121.47;2228220;80;21007;-86
2022/04/27 03:52:03;;;;;;;36.42;20.55;;;;;;;5.56;100.00;99117.34;2227351;80;20980;-87
2022/04/27 03:55:05;;;;;;;36.68;21.00;;;;;;;5.80;100.00;99122.11;2225949;80;21043;-87
2022/04/27 03:58:07;;;;;;;29.72;17.42;;;;;;;6.10;100.00;99125.02;2226177;80;21027;-88
2022/04/27 04:01:10;;;;;;;26.10;17.12;;;;;;;6.42;100.00;99128.56;2227074;80;20957;-85
2022/04/27 04:04:12;;;;;;;30.40;17.73;;;;;;;6.93;100.00;99129.80;2227957;80;20949;-87
2022/04/27 04:07:14;;;;;;;29.45;16.85;;;;;;;7.40;100.00;99119.53;2226537;80;21056;-87
2022/04/27 04:10:15;;;;;;;33.60;18.85;;;;;;;7.82;100.00;99124.12;2227961;80;20920;-82
2022/04/27 04:13:17;;;;;;;29.05;19.98;;;;;;;8.45;100.00;99133.51;2229188;80;20971;-84
2022/04/27 04:16:19;;;;;;;30.92;20.90;;;;;;;9.03;100.00;99140.58;2226733;80;21002;-88
2022/04/27 04:19:20;;;;;;;30.27;20.30;;;;;;;9.82;100.00;99140.03;2226836;80;21459;-88
2022/04/27 04:22:22;;;;;;;28.47;17.73;;;;;;;10.64;100.00;99142.02;2226454;80;20988;-88
2022/04/27 04:28:44;;;;;;;23.47;18.25;;;;;;;11.83;100.00;99146.91;2226383;80;21024;-87
2022/04/27 04:31:46;;;;;;;25.97;18.00;;;;;;;11.82;100.00;99151.03;2226290;80;21483;-89
2022/04/27 04:34:48;;;;;;;26.30;18.15;;;;;;;12.03;100.00;99147.22;2226417;80;21078;-87
2022/04/27 04:37:49;;;;;;;26.12;17.10;;;;;;;12.44;100.00;99150.27;2226499;80;21519;-90
2022/04/27 04:40:52;;;;;;;30.92;18.35;;;;;;;12.57;100.00;99156.70;2227390;80;21538;-85
2022/04/27 04:43:54;;;;;;;33.65;20.23;;;;;;;12.86;100.00;99163.23;2229080;80;20913;-85
2022/04/27 04:46:56;;;;;;;35.48;22.58;;;;;;;13.04;100.00;99168.11;2229042;80;20984;-85
2022/04/27 04:49:58;;;;;;;41.88;25.10;;;;;;;13.15;100.00;99172.08;2229010;80;20952;-85
2022/04/27 04:52:59;;;;;;;38.98;25.80;;;;;;;12.97;100.00;99173.28;2228913;80;20993;-88
2022/04/27 04:56:01;;;;;;;43.02;25.12;;;;;;;12.94;100.00;99172.84;2226804;80;21012;-90
2022/04/27 04:59:03;;;;;;;40.20;24.47;;;;;;;13.23;100.00;99175.44;2226276;80;21114;-88
2022/04/27 05:02:05;;;;;;;30.82;20.25;;;;;;;13.47;100.00;99180.88;2227620;80;21016;-84
2022/04/27 05:05:07;;;;;;;27.10;18.90;;;;;;;13.62;100.00;99179.02;2226760;80;21055;-89
2022/04/27 05:08:09;;;;;;;27.82;18.07;;;;;;;13.86;100.00;99187.52;2226364;80;21086;-88
2022/04/27 05:11:11;;;;;;;40.67;26.30;;;;;;;14.05;100.00;99190.81;2226303;80;20959;-88
2022/04/27 05:14:13;;;;;;;44.08;26.52;;;;;;;14.17;100.00;99195.89;2226307;80;21020;-89
2022/04/27 05:17:15;;;;;;;31.75;20.77;;;;;;;13.94;100.00;99190.83;2226482;80;21515;-90
2022/04/27 05:20:16;;;;;;;47.10;30.68;;;;;;;13.82;100.00;99196.30;2226121;80;21075;-88
2022/04/27 05:23:18;;;;;;;47.27;29.87;;;;;;;13.85;100.00;99198.55;2226358;80;21455;-89
2022/04/27 05:26:20;;;;;;;39.23;28.83;;;;;;;13.49;100.00;99199.91;2226148;80;21472;-88
2022/04/27 05:32:42;;;;;;;36.83;24.57;;;;;;;13.73;100.00;99198.75;2226433;80;21030;-89
2022/04/27 05:35:44;;;;;;;35.85;25.20;;;;;;;13.65;100.00;99210.20;2226414;80;21483;-85
2022/04/27 05:38:45;;;;;;;37.45;25.82;;;;;;;13.90;100.00;99204.07;2226419;80;21535;-89
2022/04/27 05:41:47;;;;;;;36.15;25.08;;;;;;;14.17;100.00;99206.43;2226483;80;21539;-88
2022/04/27 05:44:49;;;;;;;34.08;25.85;;;;;;;14.18;99.59;99209.37;2226226;80;21595;-88
2022/04/27 05:47:50;;;;;;;38.73;25.85;;;;;;;14.09;99.26;99213.65;2226623;80;21043;-88
2022/04/27 05:50:52;;;;;;;41.88;27.55;;;;;;;14.11;100.00;99218.22;2227594;79;21487;-90
2022/04/27 05:53:54;;;;;;;41.28;28.10;;;;;;;14.04;99.44;99221.29;2226372;80;21400;-89
2022/04/27 05:56:55;;;;;;;36.08;25.65;;;;;;;14.15;100.00;99219.45;2226242;80;20929;-89
2022/04/27 05:59:57;;;;;;;36.77;22.95;;;;;;;14.43;99.10;99210.24;2225798;80;21107;-89
2022/04/27 06:02:59;;;;;;;35.38;24.47;;;;;;;14.08;98.59;99223.84;2226140;80;20967;-88
2022/04/27 06:06:01;;;;;;;35.90;24.72;;;;;;;13.80;100.00;99221.16;2226400;80;21035;-91
2022/04/27 06:09:03;;;;;;;32.60;21.73;;;;;;;13.90;100.00;99228.27;2226433;80;21439;-89
2022/04/27 06:12:05;;;;;;;26.65;19.77;;;;;;;13.96;99.75;99224.86;2226161;80;20992;-90
2022/04/27 06:15:07;;;;;;;30.60;20.85;;;;;;;14.05;100.00;99226.36;2226353;80;21015;-88
2022/04/27 06:18:08;;;;;;;31.10;20.57;;;;;;;13.95;99.93;99233.27;2226156;79;21028;-89
2022/04/27 06:21:10;;;;;;;22.65;16.50;;;;;;;13.82;100.00;99242.86;2219940;79;21073;-87
2022/04/27 06:24:12;;;;;;;20.35;15.88;;;;;;;13.73;100.00;99240.03;2204524;81;21009;-88
2022/04/27 06:27:14;;;;;;;24.65;15.93;;;;;;;13.56;100.00;99241.58;2204652;81;21042;-88
2022/04/27 06:30:15;;;;;;;17.73;14.03;;;;;;;13.43;100.00;99242.73;2204325;80;21068;-89
2022/04/27 06:33:17;;;;;;;21.95;14.38;;;;;;;13.34;100.00;99242.02;2204511;80;21604;-89
2022/04/27 06:36:19;;;;;;;18.67;14.50;;;;;;;13.54;100.00;99246.72;2204290;80;21031;-90
2022/04/27 06:39:21;;;;;;;19.37;13.55;;;;;;;13.58;100.00;99244.83;2205355;81;21028;-83
2022/04/27 06:42:22;;;;;;;15.48;12.95;;;;;;;13.47;100.00;99249.27;2206462;81;21033;-87
2022/04/27 06:45:27;;;;;;;18.98;14.65;;;;;;;13.48;100.00;99250.08;2204467;80;21012;-87
2022/04/27 06:48:28;;;;;;;16.77;13.45;;;;;;;13.40;100.00;99245.73;2204133;80;21058;-86
2022/04/27 06:51:30;;;;;;;14.47;11.40;;;;;;;13.37;100.00;99243.48;2204164;79;21046;-89
2022/04/27 06:54:32;;;;;;;12.55;9.25;;;;;;;13.33;100.00;99254.85;2204203;80;20969;-89
2022/04/27 06:57:34;;;;;;;13.15;10.38;;;;;;;13.28;99.78;99251.98;2204464;81;21084;-86
2022/04/27 07:00:35;;;;;;;11.70;9.73;;;;;;;13.03;98.65;99248.79;2204110;80;21100;-87
2022/04/27 07:03:38;;;;;;;13.75;10.95;;;;;;;12.90;100.00;99255.19;2205033;81;21049;-87
2022/04/27 07:06:40;;;;;;;11.70;9.78;;;;;;;12.82;100.00;99255.28;2204967;81;21037;-88
2022/04/27 07:09:42;;;;;;;11.48;9.40;;;;;;;12.83;98.95;99259.53;2204294;80;21478;-88
2022/04/27 07:12:43;;;;;;;12.10;10.58;;;;;;;12.96;99.57;99259.70;2204297;79;21033;-88
2022/04/27 07:15:45;;;;;;;14.30;11.18;;;;;;;13.07;100.00;99254.48;2204459;79;21535;-88
2022/04/27 07:18:48;;;;;;;12.10;10.32;;;;;;;13.22;99.84;99264.53;2204412;81;21077;-86
2022/04/27 07:21:50;;;;;;;12.30;10.18;;;;;;;13.38;99.41;99266.16;2213869;80;21037;-89
2022/04/27 07:24:52;;;;;;;12.70;9.85;;;;;;;13.42;99.35;99272.66;2227200;80;20989;-84
2022/04/27 07:27:54;;;;;;;14.80;10.60;;;;;;;13.59;99.60;99270.64;2228664;79;21000;-84
2022/04/27 07:30:55;;;;;;;12.40;10.93;;;;;;;13.62;98.49;99274.20;2228644;79;20952;-88
2022/04/27 07:33:57;;;;;;;11.40;10.08;;;;;;;13.62;99.34;99282.95;2226671;80;20956;-89
2022/04/27 07:37:01;;;;;;;14.18;10.88;;;;;;;13.76;98.42;99276.50;2226632;80;21043;-89
2022/04/27 07:40:02;;;;;;;15.53;12.80;;;;;;;13.97;98.77;99284.41;2226460;79;22197;-88
2022/04/27 07:43:04;;;;;;;12.47;11.18;;;;;;;13.97;98.18;99287.03;2226715;80;20952;-88
2022/04/27 07:46:08;;;;;;;12.60;10.60;;;;;;;14.09;97.94;99282.11;2226846;79;20964;-87
2022/04/27 07:49:09;;;;;;;10.40;8.65;;;;;;;14.21;96.89;99285.86;2228002;79;21083;-85
2022/04/27 07:52:11;;;;;;;12.25;8.68;;;;;;;14.26;96.26;99291.36;2228416;80;21052;-84
2022/04/27 07:55:13;;;;;;;12.37;9.93;;;;;;;14.15;96.09;99294.00;2228119;79;20984;-85
2022/04/27 07:58:15;;;;;;;13.22;9.70;;;;;;;14.04;96.17;99288.43;2227562;80;21071;-84
2022/04/27 08:01:16;;;;;;;10.98;8.95;;;;;;;14.03;95.76;99294.70;2227567;80;21007;-86
2022/04/27 08:04:18;;;;;;;9.43;7.58;;;;;;;14.02;96.16;99295.70;2227957;80;21021;-82
2022/04/27 08:07:20;;;;;;;8.75;7.80;;;;;;;14.12;95.39;99300.97;2227057;80;20960;-88
2022/04/27 08:10:22;;;;;;;10.10;7.33;;;;;;;14.15;95.31;99300.58;2226789;79;20997;-87
2022/04/27 08:13:23;;;;;;;9.80;8.45;;;;;;;14.09;94.33;99302.67;2226277;80;21013;-88
2022/04/27 08:16:25;;;;;;;9.93;8.38;;;;;;;14.04;95.41;99303.72;2226610;80;21091;-89
2022/04/27 08:19:27;;;;;;;7.67;6.87;;;;;;;14.11;95.58;99303.30;2227955;79;21075;-83
2022/04/27 08:22:29;;;;;;;10.18;7.97;;;;;;;14.15;94.42;99307.17;2197554;80;21078;-88
2022/04/27 08:25:30;;;;;;;9.15;7.25;;;;;;;14.18;94.59;99309.45;2226763;79;21022;-89
2022/04/27 08:28:32;;;;;;;9.55;7.60;;;;;;;14.20;93.69;99315.34;2226863;79;20997;-88
2022/04/27 08:31:34;;;;;;;7.65;6.87;;;;;;;14.22;93.58;99317.27;2226442;80;21012;-89
2022/04/27 08:34:36;;;;;;;9.08;7.47;;;;;;;14.32;93.77;99312.19;2226591;80;20952;-88
2022/04/27 08:37:37;;;;;;;11.83;7.12;;;;;;;14.50;93.34;99313.39;2226382;80;21567;-88
2022/04/27 08:40:40;;;;;;;7.70;6.65;;;;;;;14.71;93.04;99309.91;2226503;79;21079;-89
2022/04/27 08:43:42;;;;;;;6.65;5.72;;;;;;;14.90;89.88;99313.69;2226356;80;21001;-89
2022/04/27 08:46:43;;;;;;;7.58;6.03;;;;;;;14.93;89.59;99315.95;2226498;80;21031;-88
2022/04/27 08:49:45;;;;;;;8.20;6.08;;;;;;;15.02;88.59;99307.39;2226215;80;20987;-88
2022/04/27 08:52:47;;;;;;;8.18;6.20;;;;;;;15.18;87.09;99306.25;2226496;80;21026;-89
2022/04/27 08:55:51;;;;;;;7.53;5.92;;;;;;;15.36;85.46;99310.02;2226412;80;21035;-90
2022/04/27 08:58:52;;;;;;;6.17;4.42;;;;;;;15.55;78.89;99311.62;2228224;80;21034;-84
2022/04/27 09:01:54;;;;;;;6.75;5.45;;;;;;;15.62;72.50;99306.69;2229123;80;20980;-84
2022/04/27 09:04:56;;;;;;;5.78;5.08;;;;;;;15.59;60.12;99304.94;2227779;79;20960;-88
2022/04/27 09:07:58;;;;;;;4.03;3.70;;;;;;;15.58;58.19;99306.76;2227250;80;21018;-88
2022/04/27 09:10:59;;;;;;;4.12;3.83;;;;;;;15.64;56.12;99307.84;2226800;80;21002;-89
2022/04/27 09:14:01;;;;;;;5.75;3.77;;;;;;;15.69;55.41;99309.88;2227167;80;21495;-88
2022/04/27 09:23:45;;;;;;;4.22;3.83;;;;;;;16.61;51.62;99305.23;2208241;79;21101;-90
2022/04/27 09:26:47;;;;;;;4.37;3.70;;;;;;;16.62;49.81;99305.55;2205149;80;21108;-88
2022/04/27 09:29:49;;;;;;;3.17;2.90;;;;;;;16.60;47.98;99303.11;2204591;80;21051;-85
2022/04/27 09:32:51;;;;;;;3.22;2.92;;;;;;;16.48;46.16;99314.00;2204549;80;21057;-86
2022/04/27 09:35:52;;;;;;;2.42;2.33;;;;;;;16.32;47.72;99303.30;2204360;80;20985;-82
